Time;durP1;ratioP1;P1;durP2;ratioP2;P2;SDS_P1;SDS_P2;PMS_P1;PMS_P2;Temp;Humidity;BMP_temperature;BMP_pressure;BME280_temperature;BME280_humidity;BME280_pressure;Samples;Min_cycle;Max_cycle;Signal;HPM_P1;HPM_P2
2022/10/04 00:02:33;;;;;;;7.53;2.88;;;358.70;2329.60;;;;;;5012836;28;20041;-76
2022/10/04 00:05:11;;;;;;;6.13;2.95;;;333.70;2329.60;;;;;;5000240;28;20037;-75
2022/10/04 00:07:43;;;;;;;4.78;2.42;;;333.70;2329.60;;;;;;5019514;28;20029;-75
2022/10/04 00:10:23;;;;;;;4.43;1.85;;;333.70;2329.60;;;;;;4998270;28;20113;-75
2022/10/04 00:13:00;;;;;;;5.88;1.90;;;333.70;2329.60;;;;;;4999265;28;20021;-75
2022/10/04 00:15:29;;;;;;;6.10;1.85;;;333.60;2329.60;;;;;;5016690;28;20033;-75
2022/10/04 00:18:04;;;;;;;5.80;1.92;;;333.60;2329.60;;;;;;4995760;28;20037;-75
2022/10/04 00:20:49;;;;;;;4.20;2.28;;;333.60;2329.60;;;;;;4999138;28;20033;-75
2022/10/04 00:23:24;;;;;;;4.05;2.00;;;333.50;2329.60;;;;;;4999315;28;20033;-75
2022/10/04 00:26:09;;;;;;;4.00;1.90;;;333.40;2329.60;;;;;;5017728;28;20113;-75
2022/10/04 00:28:34;;;;;;;6.43;3.53;;;333.40;2329.60;;;;;;5016583;28;20490;-75
2022/10/04 00:31:18;;;;;;;5.07;1.98;;;333.40;2329.60;;;;;;5018878;28;20056;-75
2022/10/04 00:34:04;;;;;;;4.03;1.98;;;333.40;2329.60;;;;;;5013620;28;20066;-75
2022/10/04 00:36:36;;;;;;;6.00;1.80;;;333.40;2329.60;;;;;;5024282;28;20026;-75
2022/10/04 00:39:08;;;;;;;4.60;1.75;;;333.40;2329.60;;;;;;4998575;28;20474;-76
2022/10/04 00:41:46;;;;;;;5.35;2.53;;;333.40;2329.60;;;;;;5019004;28;20032;-76
2022/10/04 00:44:22;;;;;;;3.20;1.92;;;333.30;2329.60;;;;;;5013816;28;20083;-74
2022/10/04 00:46:50;;;;;;;6.07;2.20;;;333.30;2329.60;;;;;;5010882;28;20026;-75
2022/10/04 00:49:20;;;;;;;5.30;2.20;;;333.30;2329.60;;;;;;5018916;28;20049;-74
2022/10/04 00:51:54;;;;;;;2.65;1.77;;;333.30;2329.60;;;;;;5001579;28;20052;-75
2022/10/04 00:54:33;;;;;;;7.43;2.20;;;333.30;2329.60;;;;;;4998508;28;20030;-75
2022/10/04 00:57:06;;;;;;;4.57;2.40;;;333.20;2329.60;;;;;;5016305;28;20018;-75
2022/10/04 00:59:40;;;;;;;5.05;2.53;;;333.20;2329.60;;;;;;5016409;28;20026;-76
2022/10/04 01:02:06;;;;;;;4.10;2.22;;;333.10;2329.60;;;;;;4995525;28;20315;-75
2022/10/04 01:04:59;;;;;;;12.18;2.78;;;333.10;2329.60;;;;;;4995942;28;20124;-75
2022/10/04 01:07:47;;;;;;;7.18;2.38;;;333.10;2329.60;;;;;;5021041;28;20379;-75
2022/10/04 01:10:27;;;;;;;5.93;2.30;;;333.00;2329.60;;;;;;5014568;28;20026;-75
2022/10/04 01:13:09;;;;;;;8.93;3.22;;;333.00;2329.60;;;;;;4999689;28;20530;-75
2022/10/04 01:15:41;;;;;;;5.85;2.80;;;333.00;2329.60;;;;;;5014439;28;20072;-75
2022/10/04 01:18:19;;;;;;;4.93;2.42;;;333.00;2329.60;;;;;;5016987;28;20022;-75
2022/10/04 01:21:22;;;;;;;6.75;2.03;;;333.00;2329.60;;;;;;4999476;28;20022;-75
2022/10/04 01:23:56;;;;;;;5.10;2.00;;;333.00;2329.60;;;;;;4953766;29;20094;-75
2022/10/04 01:26:31;;;;;;;5.22;2.28;;;332.90;2329.60;;;;;;4937754;29;20407;-75
2022/10/04 01:29:25;;;;;;;6.93;2.28;;;332.90;2329.60;;;;;;4953860;29;20051;-75
2022/10/04 01:31:53;;;;;;;6.63;2.28;;;332.90;2329.60;;;;;;4953494;29;20031;-75
2022/10/04 01:34:24;;;;;;;5.80;2.08;;;332.90;2329.60;;;;;;4953662;29;20044;-75
2022/10/04 01:36:53;;;;;;;9.00;2.40;;;332.90;2329.60;;;;;;4953577;29;20035;-75
2022/10/04 01:39:22;;;;;;;4.80;1.98;;;332.90;2329.60;;;;;;4953740;29;21847;-75
2022/10/04 01:42:01;;;;;;;5.40;1.88;;;333.00;2329.60;;;;;;4953341;29;20122;-75
2022/10/04 01:44:32;;;;;;;6.40;2.03;;;332.90;2329.60;;;;;;4953571;29;20035;-76
2022/10/04 01:47:02;;;;;;;6.43;2.47;;;332.90;2329.60;;;;;;4953389;29;20033;-75
2022/10/04 01:49:32;;;;;;;3.85;1.90;;;332.90;2329.60;;;;;;4952739;29;20351;-75
2022/10/04 01:52:09;;;;;;;4.60;2.17;;;332.80;2329.60;;;;;;4937428;29;20062;-75
2022/10/04 01:54:44;;;;;;;5.70;2.67;;;332.90;2329.60;;;;;;4937228;29;20043;-75
2022/10/04 01:57:15;;;;;;;6.47;2.10;;;332.80;2329.60;;;;;;4950189;29;20107;-75
2022/10/04 01:59:52;;;;;;;9.38;3.35;;;332.80;2329.60;;;;;;4955832;28;20027;-75
2022/10/04 02:02:29;;;;;;;4.80;2.20;;;332.80;2329.60;;;;;;5018442;28;20483;-76
2022/10/04 02:04:58;;;;;;;4.28;2.17;;;308.10;2304.00;;;;;;5016322;28;20026;-75
2022/10/04 02:07:27;;;;;;;4.05;2.03;;;308.10;2304.00;;;;;;4995839;28;20076;-75
2022/10/04 02:09:59;;;;;;;5.00;2.70;;;308.10;2304.00;;;;;;5016023;28;20072;-74
2022/10/04 02:12:27;;;;;;;3.90;2.35;;;308.10;2304.00;;;;;;5004009;28;20092;-76
2022/10/04 02:14:54;;;;;;;4.13;2.25;;;308.10;2304.00;;;;;;5015787;28;20033;-76
2022/10/04 02:17:29;;;;;;;4.93;1.70;;;308.10;2304.00;;;;;;4998368;28;20033;-75
2022/10/04 02:19:58;;;;;;;7.32;2.10;;;308.10;2304.00;;;;;;4998691;28;20029;-75
2022/10/04 02:22:25;;;;;;;7.22;2.58;;;332.80;2329.60;;;;;;5000794;28;20076;-75
2022/10/04 02:24:54;;;;;;;5.65;2.00;;;308.10;2304.00;;;;;;5016038;28;20013;-76
2022/10/04 02:27:26;;;;;;;7.00;2.45;;;308.10;2304.00;;;;;;5003376;28;20030;-75
2022/10/04 02:29:58;;;;;;;5.72;2.47;;;308.10;2304.00;;;;;;5001789;28;20452;-76
2022/10/04 02:35:08;;;;;;;5.03;2.72;;;308.10;2304.00;;;;;;5018400;28;20064;-76
2022/10/04 02:37:38;;;;;;;7.72;2.50;;;308.00;2304.00;;;;;;5018388;28;20491;-76
2022/10/04 02:40:11;;;;;;;5.28;2.50;;;332.80;2329.60;;;;;;5000761;28;20021;-76
2022/10/04 02:42:39;;;;;;;5.03;3.05;;;308.00;2304.00;;;;;;4999514;28;20025;-76
2022/10/04 02:45:25;;;;;;;5.10;2.75;;;308.00;2304.00;;;;;;5015557;28;20045;-76
2022/10/04 02:48:01;;;;;;;8.45;2.38;;;308.00;2304.00;;;;;;4998936;28;20095;-76
2022/10/04 02:50:43;;;;;;;5.70;2.13;;;308.00;2304.00;;;;;;5018069;28;20053;-76
2022/10/04 02:53:21;;;;;;;9.02;2.35;;;307.90;2304.00;;;;;;4997510;28;20490;-76
2022/10/04 02:55:48;;;;;;;6.90;2.10;;;307.90;2304.00;;;;;;4997705;28;20033;-75
2022/10/04 02:58:17;;;;;;;10.05;2.90;;;307.90;2304.00;;;;;;5006245;28;20052;-75
2022/10/04 03:00:50;;;;;;;4.75;2.42;;;307.90;2304.00;;;;;;4998443;28;20053;-76
2022/10/04 03:03:22;;;;;;;3.47;2.28;;;307.90;2304.00;;;;;;5004245;28;20132;-76
2022/10/04 03:06:07;;;;;;;6.18;2.10;;;307.90;2304.00;;;;;;5003556;28;20009;-76
2022/10/04 03:09:01;;;;;;;7.13;2.10;;;307.80;2304.00;;;;;;5013793;28;20060;-76
2022/10/04 03:11:32;;;;;;;3.83;2.22;;;307.70;2304.00;;;;;;4963148;28;20039;-75
2022/10/04 03:14:01;;;;;;;4.55;2.10;;;307.80;2304.00;;;;;;4948105;28;20061;-76
2022/10/04 03:16:33;;;;;;;6.75;2.13;;;307.80;2304.00;;;;;;4938348;28;20137;-76
2022/10/04 03:18:59;;;;;;;6.97;2.30;;;307.80;2304.00;;;;;;4938315;28;20062;-75
2022/10/04 03:21:26;;;;;;;10.15;2.30;;;307.80;2304.00;;;;;;4941043;28;20059;-75
2022/10/04 03:23:53;;;;;;;8.85;2.38;;;307.80;2304.00;;;;;;4948498;28;20027;-76
2022/10/04 03:26:39;;;;;;;3.10;1.92;;;307.80;2304.00;;;;;;4946296;28;20027;-76
2022/10/04 03:29:09;;;;;;;;;;;307.80;2304.00;;;;;;4943584;28;20508;-76
2022/10/04 03:31:41;;;;;;;5.55;2.05;;;307.80;2304.00;;;;;;4946418;28;20357;-75
2022/10/04 03:34:17;;;;;;;7.70;2.60;;;307.70;2304.00;;;;;;4954595;28;20027;-76
2022/10/04 03:36:45;;;;;;;7.13;2.42;;;307.70;2304.00;;;;;;4938202;28;20082;-76
2022/10/04 03:39:16;;;;;;;15.07;2.40;;;307.70;2304.00;;;;;;4935348;28;20031;-76
2022/10/04 03:41:43;;;;;;;6.50;2.35;;;307.80;2304.00;;;;;;4958374;28;20110;-76
2022/10/04 03:44:16;;;;;;;3.65;1.92;;;307.70;2304.00;;;;;;4948887;28;20030;-77
2022/10/04 03:46:44;;;;;;;5.55;2.38;;;307.70;2304.00;;;;;;4949971;28;20092;-76
2022/10/04 03:49:16;;;;;;;5.05;1.92;;;307.70;2304.00;;;;;;5004366;28;20044;-75
2022/10/04 03:51:47;;;;;;;6.13;2.55;;;307.70;2304.00;;;;;;5015951;28;20080;-75
2022/10/04 03:54:20;;;;;;;5.80;2.25;;;307.80;2304.00;;;;;;5014187;28;20033;-74
2022/10/04 03:56:46;;;;;;;5.80;2.10;;;307.70;2304.00;;;;;;5011574;28;20018;-76
2022/10/04 03:59:16;;;;;;;7.50;2.30;;;307.60;2304.00;;;;;;5007995;28;20075;-76
2022/10/04 04:02:00;;;;;;;7.43;2.25;;;307.60;2304.00;;;;;;5018298;28;20491;-77
2022/10/04 04:04:30;;;;;;;6.43;2.10;;;307.60;2304.00;;;;;;5014076;28;20120;-75
2022/10/04 04:07:11;;;;;;;5.30;2.30;;;307.60;2304.00;;;;;;5007631;28;20018;-76
2022/10/04 04:09:52;;;;;;;11.27;2.20;;;307.60;2304.00;;;;;;5014141;28;20022;-76
2022/10/04 04:12:37;;;;;;;4.35;2.15;;;307.50;2304.00;;;;;;4996502;28;20026;-76
2022/10/04 04:15:09;;;;;;;4.03;2.45;;;307.50;2304.00;;;;;;5004196;28;20415;-76
2022/10/04 04:17:55;;;;;;;5.63;2.33;;;307.50;2304.00;;;;;;5007517;28;20083;-78
2022/10/04 04:20:24;;;;;;;6.03;1.90;;;307.50;2304.00;;;;;;5013639;28;20034;-78
2022/10/04 04:23:14;;;;;;;5.90;2.33;;;307.50;2304.00;;;;;;5009555;28;20030;-76
2022/10/04 04:25:46;;;;;;;4.65;2.17;;;307.60;2304.00;;;;;;5010382;28;20152;-78
2022/10/04 04:28:40;;;;;;;12.73;3.15;;;307.50;2304.00;;;;;;5041495;28;20104;-76
2022/10/04 04:31:25;;;;;;;6.20;2.67;;;307.60;2304.00;;;;;;4947496;29;20038;-75
2022/10/04 04:34:05;;;;;;;7.63;2.22;;;307.60;2304.00;;;;;;4935502;29;20031;-77
2022/10/04 04:36:39;;;;;;;5.05;2.20;;;307.60;2304.00;;;;;;4929577;29;20121;-75
2022/10/04 04:39:33;;;;;;;9.23;2.38;;;307.50;2304.00;;;;;;4931836;29;20035;-75
2022/10/04 04:42:01;;;;;;;4.78;2.15;;;307.50;2304.00;;;;;;4953026;28;20042;-76
2022/10/04 04:44:28;;;;;;;5.50;2.40;;;307.50;2304.00;;;;;;4942359;29;20031;-75
2022/10/04 04:46:55;;;;;;;5.28;2.53;;;307.40;2304.00;;;;;;4926361;29;20461;-75
2022/10/04 04:49:22;;;;;;;4.78;2.15;;;307.50;2304.00;;;;;;4933337;29;20171;-77
2022/10/04 04:51:50;;;;;;;8.32;2.88;;;307.50;2304.00;;;;;;4935792;29;20580;-76
2022/10/04 04:54:23;;;;;;;5.57;2.35;;;307.50;2304.00;;;;;;4941396;29;20126;-75
2022/10/04 04:56:52;;;;;;;7.93;2.38;;;307.40;2304.00;;;;;;4929791;29;20020;-76
2022/10/04 04:59:21;;;;;;;6.80;2.75;;;307.30;2304.00;;;;;;4951667;29;20482;-75
2022/10/04 05:01:47;;;;;;;7.97;4.03;;;307.30;2304.00;;;;;;4955145;29;20093;-77
2022/10/04 05:04:13;;;;;;;8.00;3.60;;;307.50;2304.00;;;;;;4954994;29;20395;-75
2022/10/04 05:06:40;;;;;;;7.95;3.75;;;307.50;2304.00;;;;;;4955136;29;20043;-75
2022/10/04 05:09:22;;;;;;;6.93;3.65;;;307.40;2304.00;;;;;;5027664;28;20033;-76
2022/10/04 05:11:50;;;;;;;7.10;3.13;;;307.50;2304.00;;;;;;5036935;28;20041;-76
2022/10/04 05:14:18;;;;;;;4.78;2.58;;;307.50;2304.00;;;;;;5036767;28;20036;-76
2022/10/04 05:16:54;;;;;;;6.40;2.60;;;307.60;2304.00;;;;;;5031710;28;20029;-75
2022/10/04 05:19:36;;;;;;;5.03;2.53;;;307.60;2304.00;;;;;;5035591;28;20022;-74
2022/10/04 05:22:12;;;;;;;4.72;2.20;;;307.60;2304.00;;;;;;5025060;28;20033;-75
2022/10/04 05:24:41;;;;;;;5.32;2.70;;;307.60;2304.00;;;;;;5055275;28;20032;-76
2022/10/04 05:27:26;;;;;;;6.13;3.17;;;307.70;2304.00;;;;;;5036968;28;20406;-75
2022/10/04 05:30:09;;;;;;;4.65;2.05;;;307.70;2304.00;;;;;;5055362;28;20387;-76
2022/10/04 05:32:35;;;;;;;9.38;2.30;;;307.80;2304.00;;;;;;5044612;28;20031;-75
2022/10/04 05:35:01;;;;;;;7.93;2.72;;;307.80;2304.00;;;;;;5051058;28;20441;-77
2022/10/04 05:38:18;;;;;;;4.78;2.42;;;307.80;2304.00;;;;;;5036884;28;20021;-75
2022/10/04 05:41:07;;;;;;;6.57;2.50;;;307.90;2304.00;;;;;;4947268;29;20533;-75
2022/10/04 05:43:43;;;;;;;9.57;2.92;;;307.90;2304.00;;;;;;4950934;29;20054;-75
2022/10/04 05:46:29;;;;;;;4.35;2.05;;;307.90;2304.00;;;;;;4954569;29;20147;-75
2022/10/04 05:49:05;;;;;;;6.20;3.13;;;308.10;2304.00;;;;;;4954008;29;20119;-74
2022/10/04 05:51:36;;;;;;;6.13;2.50;;;308.00;2304.00;;;;;;4954599;29;20031;-74
2022/10/04 05:54:03;;;;;;;5.03;2.83;;;308.00;2304.00;;;;;;4953685;28;20039;-75
2022/10/04 05:57:03;;;;;;;7.15;2.40;;;307.90;2304.00;;;;;;4954220;29;20039;-74
2022/10/04 06:00:10;;;;;;;6.57;2.55;;;308.10;2304.00;;;;;;4945705;29;20039;-76
2022/10/04 06:03:10;;;;;;;9.07;2.80;;;308.10;2304.00;;;;;;4899809;29;20044;-74
2022/10/04 06:05:53;;;;;;;7.00;3.10;;;332.80;2329.60;;;;;;4916140;29;20107;-77
2022/10/04 06:08:42;;;;;;;8.18;3.10;;;332.80;2329.60;;;;;;4916101;29;20094;-75
2022/10/04 06:11:23;;;;;;;13.32;4.35;;;332.80;2329.60;;;;;;4915807;29;20052;-74
2022/10/04 06:14:20;;;;;;;8.00;3.88;;;332.80;2329.60;;;;;;4918567;28;20057;-74
2022/10/04 06:16:45;;;;;;;7.32;3.10;;;332.90;2329.60;;;;;;4992642;28;20035;-74
2022/10/04 06:19:39;;;;;;;10.43;3.53;;;332.90;2329.60;;;;;;4992612;28;20121;-74
2022/10/04 06:22:11;;;;;;;7.28;2.80;;;333.00;2329.60;;;;;;4976335;28;20527;-76
2022/10/04 06:24:40;;;;;;;5.85;2.83;;;333.10;2329.60;;;;;;4992778;28;20117;-75
2022/10/04 06:27:26;;;;;;;6.55;2.67;;;333.10;2329.60;;;;;;4992781;28;20030;-75
2022/10/04 06:30:04;;;;;;;8.00;3.10;;;333.20;2329.60;;;;;;4992040;28;20049;-75
2022/10/04 06:32:51;;;;;;;8.60;2.90;;;333.30;2329.60;;;;;;4975962;28;20440;-76
2022/10/04 06:35:23;;;;;;;6.70;2.55;;;333.40;2329.60;;;;;;4992487;28;20046;-74
2022/10/04 06:38:12;;;;;;;6.88;3.45;;;333.40;2329.60;;;;;;4992421;28;20031;-75
2022/10/04 06:41:06;;;;;;;8.93;3.50;;;333.60;2329.60;;;;;;5025796;28;20025;-74
2022/10/04 06:43:43;;;;;;;4.57;2.70;;;333.70;2329.60;;;;;;5031271;28;20059;-74
2022/10/04 06:46:20;;;;;;;7.95;2.60;;;333.70;2329.60;;;;;;5053738;28;20540;-74
2022/10/04 06:49:11;;;;;;;6.18;2.83;;;358.40;2329.60;;;;;;5053351;28;20043;-76
2022/10/04 06:52:02;;;;;;;6.25;2.65;;;358.50;2329.60;;;;;;5053563;28;20028;-77
2022/10/04 06:54:31;;;;;;;10.05;2.78;;;358.60;2329.60;;;;;;5053670;28;20029;-77
2022/10/04 06:57:16;;;;;;;8.95;2.38;;;358.80;2329.60;;;;;;5035700;28;20037;-76
2022/10/04 07:00:15;;;;;;;8.18;2.80;;;358.90;2329.60;;;;;;5035217;28;20041;-77
2022/10/04 07:02:51;;;;;;;7.70;2.80;;;359.00;2329.60;;;;;;5029610;28;20057;-75
2022/10/04 07:05:29;;;;;;;6.78;2.70;;;359.20;2329.60;;;;;;5045004;28;20433;-75
2022/10/04 07:08:29;;;;;;;6.93;3.08;;;359.30;2329.60;;;;;;5035257;28;20033;-77
2022/10/04 07:10:59;;;;;;;5.88;2.72;;;384.00;2329.60;;;;;;5053064;28;20021;-76
2022/10/04 07:13:27;;;;;;;6.15;2.40;;;384.30;2329.60;;;;;;5025403;28;20032;-76
2022/10/04 07:16:02;;;;;;;8.48;2.50;;;384.40;2329.60;;;;;;5031447;28;20447;-75
2022/10/04 07:18:54;;;;;;;4.63;2.47;;;384.30;2329.60;;;;;;5034851;28;20032;-76
2022/10/04 07:21:25;;;;;;;6.07;2.22;;;384.30;2329.60;;;;;;4975274;28;20035;-76
2022/10/04 07:23:57;;;;;;;8.02;2.55;;;384.40;2329.60;;;;;;4975347;28;20038;-76
2022/10/04 07:26:38;;;;;;;5.75;2.38;;;384.40;2329.60;;;;;;4991272;28;20038;-76
2022/10/04 07:29:31;;;;;;;10.57;2.85;;;384.20;2329.60;;;;;;4991540;28;20030;-76
2022/10/04 07:32:16;;;;;;;6.00;2.42;;;384.20;2329.60;;;;;;4974623;28;20125;-76
2022/10/04 07:35:07;;;;;;;4.63;2.28;;;384.20;2329.60;;;;;;4961157;28;20484;-75
2022/10/04 07:37:45;;;;;;;7.63;2.38;;;384.20;2329.60;;;;;;4907038;29;20452;-76
2022/10/04 07:40:51;;;;;;;4.80;2.10;;;384.30;2329.60;;;;;;4891279;29;20087;-74
2022/10/04 07:43:30;;;;;;;8.57;2.67;;;384.40;2329.60;;;;;;4889775;29;20037;-75
2022/10/04 07:46:24;;;;;;;7.22;3.08;;;384.40;2329.60;;;;;;4896214;29;20134;-76
2022/10/04 07:48:50;;;;;;;5.57;2.28;;;384.50;2329.60;;;;;;4893892;29;20484;-76
2022/10/04 07:51:33;;;;;;;6.88;2.30;;;384.70;2329.60;;;;;;4895701;29;20160;-74
2022/10/04 07:54:15;;;;;;;6.68;2.70;;;384.60;2329.60;;;;;;4875600;29;20044;-77
2022/10/04 07:57:11;;;;;;;8.18;3.15;;;384.70;2329.60;;;;;;4860226;29;20093;-74
2022/10/04 08:00:00;;;;;;;7.65;2.45;;;384.80;2329.60;;;;;;4894426;29;20498;-75
2022/10/04 08:02:57;;;;;;;4.88;2.67;;;384.90;2329.60;;;;;;4877284;29;20051;-74
2022/10/04 08:05:33;;;;;;;8.02;2.92;;;384.80;2329.60;;;;;;4913705;29;20036;-77
2022/10/04 08:08:33;;;;;;;6.03;2.60;;;384.70;2329.60;;;;;;4901290;29;20032;-76
2022/10/04 08:11:33;;;;;;;8.70;2.00;;;384.70;2329.60;;;;;;4899777;29;20028;-79
2022/10/04 08:14:26;;;;;;;4.78;2.67;;;384.70;2329.60;;;;;;4916153;29;20039;-76
2022/10/04 08:17:10;;;;;;;10.38;2.53;;;384.90;2329.60;;;;;;4977887;28;20046;-76
2022/10/04 08:20:13;;;;;;;6.38;2.58;;;384.90;2329.60;;;;;;5026249;28;20026;-78
2022/10/04 08:23:06;;;;;;;6.85;2.35;;;409.70;2355.20;;;;;;5030656;28;20085;-75
2022/10/04 08:25:52;;;;;;;11.98;2.90;;;409.70;2355.20;;;;;;5032115;28;20022;-77
2022/10/04 08:31:35;;;;;;;7.78;3.22;;;409.70;2355.20;;;;;;5031749;28;20376;-75
2022/10/04 08:34:04;;;;;;;5.63;2.47;;;409.70;2355.20;;;;;;5031710;28;20042;-75
2022/10/04 08:37:14;;;;;;;5.35;2.45;;;409.70;2355.20;;;;;;5021400;28;20081;-76
2022/10/04 08:39:49;;;;;;;6.25;2.38;;;409.70;2355.20;;;;;;5000041;28;20026;-77
2022/10/04 08:42:33;;;;;;;7.25;2.55;;;409.90;2355.20;;;;;;4994853;28;20034;-76
2022/10/04 08:45:28;;;;;;;7.53;2.63;;;410.00;2355.20;;;;;;5007779;28;20029;-76
2022/10/04 08:48:31;;;;;;;8.38;3.00;;;410.00;2355.20;;;;;;5007762;28;20100;-75
2022/10/04 08:51:24;;;;;;;8.13;2.33;;;410.20;2355.20;;;;;;4995275;28;20565;-76
2022/10/04 08:53:56;;;;;;;5.22;2.97;;;410.30;2355.20;;;;;;4986960;28;20028;-76
2022/10/04 08:56:59;;;;;;;9.90;2.45;;;410.50;2355.20;;;;;;5030295;28;20064;-76
2022/10/04 08:59:53;;;;;;;4.95;2.47;;;435.20;2355.20;;;;;;5011887;28;20022;-76
2022/10/04 09:02:37;;;;;;;8.10;2.28;;;410.50;2355.20;;;;;;5033295;28;20029;-77
2022/10/04 09:05:23;;;;;;;5.20;2.28;;;410.40;2355.20;;;;;;5019422;28;20049;-76
2022/10/04 09:08:17;;;;;;;7.47;2.85;;;410.50;2355.20;;;;;;5040887;28;20383;-75
2022/10/04 09:11:03;;;;;;;6.53;2.28;;;435.30;2355.20;;;;;;5033464;28;20063;-77
2022/10/04 09:13:30;;;;;;;;;;;435.60;2355.20;;;;;;5034173;28;20025;-76
2022/10/04 09:16:41;;;;;;;5.78;2.45;;;435.50;2355.20;;;;;;5051202;28;20305;-74
2022/10/04 09:19:22;;;;;;;7.57;2.05;;;435.50;2355.20;;;;;;5051195;28;20021;-74
2022/10/04 09:22:10;;;;;;;9.20;3.33;;;435.60;2355.20;;;;;;5033061;28;20478;-72
2022/10/04 09:25:11;;;;;;;5.45;2.05;;;436.00;2355.20;;;;;;5051041;28;20028;-71
2022/10/04 09:27:53;;;;;;;7.57;2.40;;;436.10;2355.20;;;;;;5051527;28;20028;-73
2022/10/04 09:30:21;;;;;;;4.78;2.05;;;436.00;2355.20;;;;;;5036990;28;20116;-72
2022/10/04 09:33:05;;;;;;;5.80;2.33;;;460.80;2380.80;;;;;;5054647;28;20021;-72
2022/10/04 09:36:03;;;;;;;3.38;2.00;;;460.80;2380.80;;;;;;5021908;28;20048;-76
2022/10/04 09:38:57;;;;;;;6.70;2.30;;;461.00;2380.80;;;;;;4945159;29;20043;-75
2022/10/04 09:41:47;;;;;;;5.88;2.15;;;461.10;2380.80;;;;;;4938530;28;20031;-75
2022/10/04 09:44:32;;;;;;;3.55;1.80;;;461.50;2380.80;;;;;;4919445;29;20044;-75
2022/10/04 09:47:11;;;;;;;3.88;1.90;;;461.40;2380.80;;;;;;4937550;29;20493;-76
2022/10/04 09:50:17;;;;;;;6.60;2.13;;;461.40;2380.80;;;;;;4941226;29;20043;-76
2022/10/04 09:53:09;;;;;;;6.90;2.75;;;461.40;2380.80;;;;;;4900096;29;20044;-77
2022/10/04 09:55:44;;;;;;;4.00;1.92;;;461.40;2380.80;;;;;;4891992;29;20145;-77
2022/10/04 09:58:30;;;;;;;5.47;2.25;;;461.60;2380.80;;;;;;4899198;29;20659;-77
2022/10/04 10:01:02;;;;;;;4.35;2.10;;;486.40;2380.80;;;;;;4884291;29;20438;-75
2022/10/04 10:03:49;;;;;;;4.00;2.00;;;486.60;2380.80;;;;;;4899074;29;20415;-75
2022/10/04 10:06:15;;;;;;;4.03;2.30;;;486.40;2380.80;;;;;;4899694;29;20024;-76
2022/10/04 10:08:48;;;;;;;4.50;2.42;;;;;;;;;;4884017;29;20039;-74
2022/10/04 10:14:54;;;;;;;13.18;2.50;;;486.70;2380.80;;;;;;4950210;28;20026;-77
2022/10/04 10:17:36;;;;;;;3.80;2.08;;;486.40;2380.80;;;;;;4952100;28;20388;-79
2022/10/04 10:20:21;;;;;;;8.70;2.30;;;486.40;2380.80;;;;;;4951182;28;20492;-78
2022/10/04 10:23:25;;;;;;;5.50;2.00;;;486.40;2380.80;;;;;;4938384;29;20042;-77
2022/10/04 10:25:58;;;;;;;5.78;2.20;;;461.50;2380.80;;;;;;4960416;28;20022;-78
2022/10/04 10:28:48;;;;;;;4.68;2.30;;;461.50;2380.80;;;;;;4979493;28;20032;-74
2022/10/04 10:31:23;;;;;;;4.57;1.75;;;461.50;2380.80;;;;;;5036043;28;20025;-76
2022/10/04 10:34:10;;;;;;;5.80;2.00;;;461.50;2380.80;;;;;;5053877;28;20108;-76
2022/10/04 10:37:09;;;;;;;6.70;1.55;;;461.40;2380.80;;;;;;5025095;28;20040;-74
2022/10/04 10:40:07;;;;;;;4.53;1.98;;;461.40;2380.80;;;;;;5025112;28;20491;-74
2022/10/04 10:42:50;;;;;;;7.88;2.05;;;461.30;2380.80;;;;;;5024820;28;20076;-75
2022/10/04 10:45:39;;;;;;;6.57;2.25;;;486.80;2380.80;;;;;;5013140;28;20022;-74
2022/10/04 10:48:17;;;;;;;6.70;2.10;;;486.80;2380.80;;;;;;5012541;28;20376;-73
2022/10/04 10:51:02;;;;;;;5.00;1.60;;;486.80;2355.20;;;;;;5022488;28;20029;-75
2022/10/04 10:54:05;;;;;;;4.82;1.95;;;486.50;2227.20;;;;;;5027752;28;20040;-73
2022/10/04 10:57:17;;;;;;;5.53;1.90;;;486.50;2304.00;;;;;;5029688;28;20030;-73
2022/10/04 10:59:59;;;;;;;3.95;1.67;;;486.40;2380.80;;;;;;4979487;28;20043;-75
2022/10/04 11:02:43;;;;;;;4.20;1.58;;;486.60;2380.80;;;;;;4969925;28;20041;-73
2022/10/04 11:05:37;;;;;;;4.18;1.83;;;487.30;2227.20;;;;;;4969624;28;20071;-77
2022/10/04 11:08:33;;;;;;;6.13;1.75;;;512.30;2201.60;;;;;;4962425;28;20439;-74
2022/10/04 11:11:02;;;;;;;6.05;1.73;;;512.30;2252.80;;;;;;4961550;28;20043;-73
2022/10/04 11:14:12;;;;;;;4.20;1.55;;;512.50;2150.40;;;;;;4964673;28;20091;-71
2022/10/04 11:16:46;;;;;;;9.07;2.53;;;512.00;2252.80;;;;;;4896200;29;20045;-74
2022/10/04 11:19:41;;;;;;;9.75;2.50;;;487.00;2329.60;;;;;;4896060;29;20487;-75
2022/10/04 11:22:34;;;;;;;4.38;1.70;;;487.10;2355.20;;;;;;4893595;29;20784;-74
2022/10/04 11:25:06;;;;;;;3.85;1.55;;;487.00;2329.60;;;;;;4895903;29;20044;-72
2022/10/04 11:27:56;;;;;;;4.38;1.70;;;486.70;2380.80;;;;;;4895122;29;20071;-73
2022/10/04 11:30:28;;;;;;;3.20;1.30;;;486.50;2380.80;;;;;;4895556;29;20064;-74
2022/10/04 11:33:18;;;;;;;4.95;1.70;;;461.50;2380.80;;;;;;4895533;29;20486;-75
2022/10/04 11:35:58;;;;;;;6.30;2.60;;;461.20;2380.80;;;;;;4898916;29;20119;-75
2022/10/04 11:38:47;;;;;;;3.33;1.60;;;461.10;2380.80;;;;;;4931834;29;20019;-73
2022/10/04 11:41:32;;;;;;;4.95;2.25;;;461.10;2380.80;;;;;;4933390;29;20054;-76
2022/10/04 11:44:13;;;;;;;3.92;1.88;;;460.90;2380.80;;;;;;4933389;29;20166;-73
2022/10/04 11:46:45;;;;;;;3.53;1.75;;;461.50;2380.80;;;;;;4933209;29;20583;-74
2022/10/04 11:49:25;;;;;;;4.65;2.03;;;486.40;2380.80;;;;;;4933364;29;20064;-73
2022/10/04 11:52:22;;;;;;;5.82;2.17;;;461.70;2380.80;;;;;;4932562;28;20024;-74
2022/10/04 11:54:56;;;;;;;3.30;1.83;;;461.60;2380.80;;;;;;5029186;28;20743;-73
2022/10/04 11:57:37;;;;;;;6.57;2.55;;;461.50;2380.80;;;;;;5031201;28;20028;-74
2022/10/04 12:00:23;;;;;;;3.78;2.00;;;461.60;2380.80;;;;;;5031124;28;20482;-73
2022/10/04 12:03:08;;;;;;;4.72;1.63;;;461.60;2380.80;;;;;;5029273;28;20073;-74
2022/10/04 12:06:12;;;;;;;2.90;1.40;;;461.50;2380.80;;;;;;5029923;28;20053;-73
2022/10/04 12:08:54;;;;;;;3.40;1.55;;;461.50;2380.80;;;;;;5030026;28;20099;-73
2022/10/04 12:15:04;;;;;;;10.77;2.05;;;461.30;2380.80;;;;;;5024947;28;20076;-73
2022/10/04 12:17:51;;;;;;;6.20;1.85;;;461.30;2380.80;;;;;;5028911;28;20009;-73
2022/10/04 12:20:58;;;;;;;3.53;1.50;;;461.30;2380.80;;;;;;5030140;28;20021;-72
2022/10/04 12:24:04;;;;;;;4.22;1.50;;;461.10;2380.80;;;;;;5021280;28;20446;-73
2022/10/04 12:27:01;;;;;;;4.70;2.20;;;461.20;2380.80;;;;;;5028807;28;20022;-74
2022/10/04 12:29:54;;;;;;;3.13;1.52;;;461.40;2380.80;;;;;;5028440;28;20108;-74
2022/10/04 12:32:26;;;;;;;4.45;2.08;;;461.40;2380.80;;;;;;5029749;28;20029;-74
2022/10/04 12:35:21;;;;;;;4.97;1.75;;;461.50;2380.80;;;;;;5028595;28;20112;-75
2022/10/04 12:37:52;;;;;;;4.55;1.73;;;461.70;2380.80;;;;;;5030675;28;20398;-74
2022/10/04 12:40:47;;;;;;;3.22;1.60;;;486.40;2380.80;;;;;;5027664;28;20029;-74
2022/10/04 12:43:26;;;;;;;7.45;2.10;;;461.70;2380.80;;;;;;5028906;28;20044;-74
2022/10/04 12:46:11;;;;;;;5.07;1.40;;;461.70;2380.80;;;;;;5030786;28;20022;-73
2022/10/04 12:49:09;;;;;;;9.38;1.77;;;461.70;2380.80;;;;;;5028725;28;20017;-73
2022/10/04 12:51:59;;;;;;;3.85;1.63;;;461.60;2380.80;;;;;;4930667;29;20036;-77
2022/10/04 12:54:43;;;;;;;2.88;1.58;;;461.50;2380.80;;;;;;4929851;29;20032;-74
2022/10/04 12:57:12;;;;;;;3.47;1.88;;;461.40;2380.80;;;;;;4931201;29;20118;-73
2022/10/04 12:59:53;;;;;;;4.15;1.30;;;461.40;2380.80;;;;;;4931502;29;20051;-73
2022/10/04 13:02:52;;;;;;;4.20;1.60;;;461.40;2380.80;;;;;;4929928;29;20188;-73
2022/10/04 13:05:36;;;;;;;7.78;1.45;;;461.40;2380.80;;;;;;4933455;29;20063;-72
2022/10/04 13:08:19;;;;;;;9.25;1.85;;;461.40;2380.80;;;;;;4934886;29;20143;-72
2022/10/04 13:11:05;;;;;;;5.75;1.70;;;461.40;2380.80;;;;;;4934755;29;20059;-72
2022/10/04 13:13:59;;;;;;;6.85;1.63;;;461.40;2380.80;;;;;;4934561;28;20042;-74
2022/10/04 13:16:41;;;;;;;4.97;1.50;;;461.50;2380.80;;;;;;4887369;29;20043;-74
2022/10/04 13:19:15;;;;;;;5.28;1.70;;;461.50;2380.80;;;;;;4879361;29;20033;-73
2022/10/04 13:22:00;;;;;;;3.08;1.60;;;461.50;2380.80;;;;;;4892305;29;20190;-74
2022/10/04 13:24:56;;;;;;;2.83;1.42;;;461.70;2380.80;;;;;;4882259;29;20029;-75
2022/10/04 13:27:43;;;;;;;3.60;1.65;;;461.60;2380.80;;;;;;4927755;28;20066;-79
2022/10/04 13:30:25;;;;;;;4.38;1.83;;;461.60;2380.80;;;;;;4967553;28;20034;-74
2022/10/04 13:33:46;;;;;;;5.68;1.65;;;461.50;2380.80;;;;;;4962048;28;20565;-75
2022/10/04 13:36:23;;;;;;;3.97;1.88;;;461.60;2380.80;;;;;;4896354;29;20069;-74
2022/10/04 13:38:58;;;;;;;6.20;1.77;;;461.60;2380.80;;;;;;4895727;29;20084;-76
2022/10/04 13:41:50;;;;;;;3.53;1.83;;;461.60;2380.80;;;;;;4896377;29;20041;-75